Time;durP1;ratioP1;P1;durP2;ratioP2;P2;SDS_P1;SDS_P2;PMS_P1;PMS_P2;Temp;Humidity;BMP_temperature;BMP_pressure;BME280_temperature;BME280_humidity;BME280_pressure;Samples;Min_cycle;Max_cycle;Signal;HPM_P1;HPM_P2
2021/04/07 04:00:35;;;;;;;6.13;4.60;;;1.30;99.90;;;;;;5935730;23;20482;-63
2021/04/07 04:03:01;;;;;;;5.40;4.10;;;1.30;99.90;;;;;;4994696;28;20489;-64
2021/04/07 04:05:27;;;;;;;5.10;4.37;;;1.30;99.90;;;;;;4995260;28;20453;-63
2021/04/07 04:07:54;;;;;;;4.50;4.03;;;1.30;99.90;;;;;;4994981;28;20944;-64
2021/04/07 04:10:20;;;;;;;5.03;4.47;;;1.30;99.90;;;;;;4995356;28;20453;-63
2021/04/07 04:12:47;;;;;;;5.83;4.33;;;1.40;99.90;;;;;;4994139;28;20450;-63
2021/04/07 04:15:14;;;;;;;5.17;3.97;;;1.30;99.90;;;;;;4995012;28;20457;-65
2021/04/07 04:17:43;;;;;;;5.83;4.40;;;1.30;99.90;;;;;;4994578;28;20956;-62
2021/04/07 04:20:11;;;;;;;4.77;3.90;;;1.40;99.90;;;;;;4995062;28;20465;-65
2021/04/07 04:22:37;;;;;;;3.97;3.67;;;1.40;99.90;;;;;;4994693;28;20482;-63
2021/04/07 04:25:05;;;;;;;4.90;3.93;;;1.40;99.90;;;;;;4995553;28;20449;-64
2021/04/07 04:27:31;;;;;;;4.53;3.97;;;1.40;99.90;;;;;;4995755;28;20461;-64
2021/04/07 04:29:57;;;;;;;4.37;3.90;;;1.50;99.90;;;;;;4994975;28;20445;-63
2021/04/07 04:32:23;;;;;;;4.07;3.77;;;1.50;99.90;;;;;;4994524;28;20470;-63
2021/04/07 04:34:50;;;;;;;4.17;3.70;;;1.50;99.90;;;;;;4994440;28;20454;-64
2021/04/07 04:37:17;;;;;;;5.10;3.90;;;1.40;99.90;;;;;;4994894;28;20438;-64
2021/04/07 04:39:43;;;;;;;5.13;4.17;;;1.40;99.90;;;;;;4994521;28;20816;-65
2021/04/07 04:42:09;;;;;;;5.87;3.80;;;1.50;99.90;;;;;;4994500;28;20477;-65
2021/04/07 04:44:35;;;;;;;4.30;3.90;;;1.50;99.90;;;;;;4994645;28;20808;-65
2021/04/07 04:47:02;;;;;;;3.70;3.40;;;1.50;99.90;;;;;;4994555;28;20462;-63
2021/04/07 04:49:28;;;;;;;3.53;3.30;;;1.60;99.90;;;;;;4994485;28;20484;-65
2021/04/07 04:51:55;;;;;;;6.63;3.97;;;1.60;99.90;;;;;;4994241;28;20466;-64
2021/04/07 04:54:22;;;;;;;3.90;3.60;;;1.60;99.90;;;;;;4994531;28;20461;-66
2021/04/07 04:56:48;;;;;;;4.03;3.67;;;1.60;99.90;;;;;;4994414;28;20480;-65
2021/04/07 04:59:14;;;;;;;4.40;3.97;;;1.60;99.90;;;;;;4995051;28;20461;-65
2021/04/07 05:01:40;;;;;;;6.57;3.40;;;1.60;99.90;;;;;;4994053;28;20482;-65
2021/04/07 05:04:06;;;;;;;4.20;3.07;;;1.50;99.90;;;;;;4993921;28;20454;-65
2021/04/07 05:06:33;;;;;;;3.83;3.40;;;1.50;99.90;;;;;;4993872;28;20458;-65
2021/04/07 05:09:01;;;;;;;10.50;3.63;;;1.50;99.90;;;;;;4993936;28;20461;-64
2021/04/07 05:11:27;;;;;;;3.87;3.57;;;1.50;99.90;;;;;;4993975;28;20844;-65
2021/04/07 05:13:53;;;;;;;4.87;3.80;;;1.50;99.90;;;;;;4993509;28;20945;-65
2021/04/07 05:16:19;;;;;;;3.60;3.30;;;1.60;99.90;;;;;;4993874;28;20464;-64
2021/04/07 05:18:45;;;;;;;3.50;3.20;;;1.60;99.90;;;;;;4993809;28;20852;-65
2021/04/07 05:21:12;;;;;;;3.63;3.33;;;1.60;99.90;;;;;;4993686;28;20532;-65
2021/04/07 05:23:38;;;;;;;3.80;3.50;;;1.60;99.90;;;;;;4994797;28;20484;-65
2021/04/07 05:26:05;;;;;;;3.87;3.60;;;1.60;99.90;;;;;;4997311;28;20580;-64
2021/04/07 05:28:31;;;;;;;5.83;3.77;;;1.70;99.90;;;;;;4997906;28;20458;-65
2021/04/07 05:31:01;;;;;;;6.67;3.80;;;1.70;99.90;;;;;;4997301;28;20532;-65
2021/04/07 05:33:29;;;;;;;5.80;3.87;;;1.70;99.90;;;;;;4997263;28;20453;-65
2021/04/07 05:35:56;;;;;;;5.40;3.73;;;1.80;99.90;;;;;;5002166;28;20453;-65
2021/04/07 05:38:23;;;;;;;3.30;3.00;;;1.80;99.90;;;;;;4997672;28;20469;-64
2021/04/07 05:40:50;;;;;;;8.57;4.13;;;1.80;99.90;;;;;;4996981;28;20480;-64
2021/04/07 05:43:18;;;;;;;5.20;3.47;;;1.80;99.90;;;;;;4997231;28;20469;-64
2021/04/07 05:45:44;;;;;;;5.13;3.80;;;1.80;99.90;;;;;;4997047;28;20454;-65
2021/04/07 05:48:10;;;;;;;7.33;3.90;;;1.80;99.90;;;;;;4997068;28;20458;-64
2021/04/07 05:50:38;;;;;;;4.20;3.63;;;1.80;99.90;;;;;;4996971;28;20478;-64
2021/04/07 05:53:04;;;;;;;3.90;3.13;;;1.90;99.90;;;;;;4997034;28;20457;-64
2021/04/07 05:55:31;;;;;;;5.17;3.20;;;1.90;99.90;;;;;;4996860;28;20460;-64
2021/04/07 05:57:58;;;;;;;5.93;3.33;;;1.90;99.90;;;;;;4997024;28;20469;-64
2021/04/07 06:00:26;;;;;;;5.73;4.70;;;2.00;99.90;;;;;;4996759;28;20458;-65
2021/04/07 06:02:54;;;;;;;5.77;4.10;;;1.90;99.90;;;;;;4996764;28;20473;-64
2021/04/07 06:05:21;;;;;;;6.40;4.23;;;1.90;99.90;;;;;;4996588;28;21035;-64
2021/04/07 06:07:47;;;;;;;3.70;3.27;;;1.90;99.90;;;;;;4996407;28;20964;-64
2021/04/07 06:10:14;;;;;;;5.73;3.47;;;1.90;99.90;;;;;;4996606;28;20454;-64
2021/04/07 06:12:41;;;;;;;4.57;4.17;;;2.00;99.90;;;;;;4996687;28;20450;-64
2021/04/07 06:15:08;;;;;;;5.03;4.00;;;2.00;99.90;;;;;;4996726;28;20460;-65
2021/04/07 06:17:36;;;;;;;5.77;4.00;;;2.00;99.90;;;;;;4998015;28;20454;-65
2021/04/07 06:20:04;;;;;;;7.13;4.13;;;2.10;99.90;;;;;;4997173;28;20496;-65
2021/04/07 06:22:30;;;;;;;6.90;3.90;;;2.10;99.90;;;;;;4996693;28;20481;-65
2021/04/07 06:24:57;;;;;;;3.53;3.20;;;2.20;99.90;;;;;;4996419;28;20454;-64
2021/04/07 06:27:23;;;;;;;3.90;3.30;;;2.30;99.90;;;;;;4996395;28;20801;-64
2021/04/07 06:29:49;;;;;;;5.00;3.23;;;2.40;99.90;;;;;;4997134;28;20458;-64
2021/04/07 06:32:15;;;;;;;5.57;3.50;;;2.50;99.90;;;;;;4997486;28;20470;-64
2021/04/07 06:34:42;;;;;;;8.27;3.50;;;2.70;99.90;;;;;;4996170;28;20576;-64
2021/04/07 06:37:08;;;;;;;11.57;3.10;;;2.80;99.90;;;;;;4995868;28;20458;-64
2021/04/07 06:39:35;;;;;;;3.23;2.90;;;2.90;99.90;;;;;;4995907;28;20956;-64
2021/04/07 06:42:01;;;;;;;3.43;2.77;;;2.80;99.90;;;;;;4996043;28;20496;-64
2021/04/07 06:44:27;;;;;;;4.20;3.30;;;2.80;99.90;;;;;;4996176;28;20454;-64
2021/04/07 06:46:55;;;;;;;8.30;3.47;;;2.70;99.90;;;;;;4995924;28;20453;-64
2021/04/07 06:49:23;;;;;;;5.27;3.30;;;2.70;99.90;;;;;;4996512;28;20489;-64
2021/04/07 06:51:53;;;;;;;6.70;3.13;;;2.80;99.90;;;;;;4996017;28;20547;-64
2021/04/07 06:54:22;;;;;;;3.60;3.30;;;2.90;99.90;;;;;;4995978;28;20442;-64
2021/04/07 06:56:49;;;;;;;4.67;3.03;;;2.90;99.90;;;;;;4996061;28;20458;-64
2021/04/07 06:59:15;;;;;;;9.20;3.83;;;3.00;99.90;;;;;;4995699;28;20493;-64
2021/04/07 07:01:41;;;;;;;3.40;3.10;;;3.00;99.90;;;;;;4995352;28;20482;-64
2021/04/07 07:04:08;;;;;;;3.73;2.97;;;3.00;99.90;;;;;;4995872;28;20454;-64
2021/04/07 07:06:34;;;;;;;6.60;3.03;;;2.90;99.90;;;;;;4995705;28;20454;-64
2021/04/07 07:09:11;;;;;;;4.93;2.33;;;3.00;99.90;;;;;;4995561;28;20508;-64
2021/04/07 07:11:39;;;;;;;5.57;2.60;;;3.00;99.90;;;;;;4995530;28;20477;-64
2021/04/07 07:14:06;;;;;;;5.03;2.67;;;3.20;99.90;;;;;;4995305;28;20539;-65
2021/04/07 07:16:32;;;;;;;7.00;3.00;;;3.30;99.90;;;;;;4995319;28;20454;-64
2021/04/07 07:18:58;;;;;;;2.73;2.43;;;3.40;99.90;;;;;;4995290;28;20541;-65
2021/04/07 07:21:25;;;;;;;3.83;2.60;;;3.40;99.90;;;;;;4995196;28;20474;-64
2021/04/07 07:23:51;;;;;;;3.23;2.80;;;3.40;99.90;;;;;;4994904;28;20844;-65
2021/04/07 07:26:20;;;;;;;3.00;2.40;;;3.50;99.90;;;;;;4994963;28;20469;-64
2021/04/07 07:28:50;;;;;;;5.20;2.73;;;3.60;99.90;;;;;;4994991;28;20505;-64
2021/04/07 07:31:18;;;;;;;5.30;2.67;;;3.60;99.90;;;;;;4994944;28;20477;-64
2021/04/07 07:33:44;;;;;;;4.37;2.50;;;3.70;99.90;;;;;;4995047;28;20508;-65
2021/04/07 07:36:11;;;;;;;4.00;2.40;;;4.10;99.90;;;;;;4994960;28;20817;-64
2021/04/07 07:38:44;;;;;;;4.67;2.47;;;4.40;99.90;;;;;;4994850;28;20463;-65
2021/04/07 07:41:11;;;;;;;2.33;2.13;;;4.60;99.90;;;;;;4995255;28;20484;-64
2021/04/07 07:43:41;;;;;;;5.37;2.90;;;5.10;99.90;;;;;;4999506;28;20470;-65
2021/04/07 07:46:10;;;;;;;3.60;2.77;;;5.90;99.90;;;;;;5009278;28;20441;-64
2021/04/07 07:48:38;;;;;;;4.20;2.47;;;6.30;99.90;;;;;;5009261;28;20464;-65
2021/04/07 07:51:15;;;;;;;4.17;2.60;;;6.60;99.90;;;;;;4995114;28;21034;-64
2021/04/07 07:53:45;;;;;;;2.93;2.63;;;6.60;99.90;;;;;;4995275;28;20438;-64
2021/04/07 07:56:12;;;;;;;9.40;2.83;;;7.00;99.90;;;;;;4994952;28;20549;-63
2021/04/07 07:58:43;;;;;;;2.20;2.10;;;7.80;99.90;;;;;;4994715;28;20457;-64
2021/04/07 08:01:11;;;;;;;3.70;2.13;;;8.50;99.90;;;;;;4994172;28;20589;-64
2021/04/07 08:03:37;;;;;;;4.23;2.47;;;9.20;95.90;;;;;;4994577;28;20485;-64
2021/04/07 08:06:04;;;;;;;5.60;2.40;;;9.20;94.10;;;;;;4994760;28;20461;-64
2021/04/07 08:08:30;;;;;;;2.47;1.70;;;9.00;92.80;;;;;;4994421;28;20458;-64
2021/04/07 08:10:57;;;;;;;3.60;2.00;;;8.70;91.30;;;;;;4994359;28;20482;-64
2021/04/07 08:13:29;;;;;;;1.80;1.60;;;8.70;93.60;;;;;;4994450;28;20460;-64
2021/04/07 08:15:57;;;;;;;5.10;2.10;;;8.40;93.80;;;;;;4994520;28;20507;-64
2021/04/07 08:18:25;;;;;;;2.00;1.90;;;8.20;92.90;;;;;;4994379;28;20819;-64
2021/04/07 08:20:51;;;;;;;3.27;1.90;;;7.90;92.70;;;;;;4994902;28;20474;-64
2021/04/07 08:23:18;;;;;;;2.30;2.10;;;7.40;91.70;;;;;;4994172;28;20500;-64
2021/04/07 08:25:48;;;;;;;4.03;2.10;;;6.80;94.00;;;;;;4993954;28;20865;-64
2021/04/07 08:28:17;;;;;;;7.77;2.07;;;6.80;95.80;;;;;;4994471;28;20465;-64
2021/04/07 08:30:43;;;;;;;3.13;2.20;;;7.10;97.60;;;;;;4994194;28;20474;-64
2021/04/07 08:33:11;;;;;;;3.00;1.93;;;7.00;95.70;;;;;;4994700;28;20948;-65
2021/04/07 08:35:38;;;;;;;5.53;2.10;;;6.70;96.60;;;;;;4995288;28;20458;-65
2021/04/07 08:38:06;;;;;;;6.17;1.97;;;6.30;97.80;;;;;;4995545;28;20458;-64
2021/04/07 08:40:38;;;;;;;2.97;2.00;;;6.00;99.30;;;;;;4996152;28;20816;-64
2021/04/07 08:43:06;;;;;;;4.63;3.47;;;5.90;99.90;;;;;;4996609;28;20474;-64
2021/04/07 08:45:42;;;;;;;2.63;2.10;;;5.90;99.90;;;;;;4995303;28;20485;-64
2021/04/07 08:48:18;;;;;;;4.93;2.70;;;5.90;99.90;;;;;;4995455;28;20434;-64
2021/04/07 08:50:45;;;;;;;2.63;2.30;;;6.00;99.90;;;;;;4995540;28;20984;-64
2021/04/07 08:53:13;;;;;;;2.43;1.83;;;6.20;98.50;;;;;;4996278;28;20472;-64
2021/04/07 08:55:42;;;;;;;11.00;2.47;;;5.90;98.40;;;;;;4996113;28;20454;-65
2021/04/07 08:58:10;;;;;;;3.77;2.60;;;5.70;99.90;;;;;;4995241;28;20496;-64
2021/04/07 09:00:37;;;;;;;5.03;2.70;;;5.70;99.90;;;;;;4998793;28;20532;-64
2021/04/07 09:03:10;;;;;;;5.20;3.33;;;5.20;99.90;;;;;;4999054;28;20470;-64
2021/04/07 09:05:39;;;;;;;4.10;2.20;;;5.00;99.90;;;;;;4999051;28;20418;-64
2021/04/07 09:08:08;;;;;;;3.33;3.00;;;4.90;99.90;;;;;;4998840;28;20835;-64
2021/04/07 09:10:42;;;;;;;6.80;3.80;;;4.70;99.90;;;;;;4998219;28;20540;-64
2021/04/07 09:13:09;;;;;;;4.20;3.20;;;4.30;99.90;;;;;;4998037;28;20469;-65
2021/04/07 09:15:47;;;;;;;6.87;3.67;;;4.40;99.90;;;;;;4997851;28;20449;-64
2021/04/07 09:18:16;;;;;;;3.50;2.90;;;4.40;99.90;;;;;;4997788;28;20446;-64
2021/04/07 09:20:44;;;;;;;4.93;2.90;;;4.50;99.90;;;;;;4997632;28;20474;-64
2021/04/07 09:23:14;;;;;;;4.10;2.97;;;4.50;99.90;;;;;;4997763;28;20482;-64
2021/04/07 09:25:46;;;;;;;3.23;2.50;;;4.50;99.90;;;;;;4998433;28;20464;-65
2021/04/07 09:28:12;;;;;;;5.00;2.80;;;4.50;99.90;;;;;;4998179;28;20935;-64
2021/04/07 09:30:47;;;;;;;5.13;3.77;;;4.60;99.90;;;;;;4998654;28;20473;-64
2021/04/07 09:33:18;;;;;;;5.37;3.27;;;4.90;99.90;;;;;;4999004;28;20434;-64
2021/04/07 09:35:59;;;;;;;2.90;2.63;;;5.10;99.90;;;;;;4998398;28;20449;-64
2021/04/07 09:38:27;;;;;;;3.30;3.10;;;5.20;99.90;;;;;;4997844;28;20802;-65
2021/04/07 09:41:07;;;;;;;2.70;2.50;;;5.40;99.90;;;;;;4997871;28;20483;-64
2021/04/07 09:43:34;;;;;;;6.60;3.23;;;5.40;99.90;;;;;;4998011;28;20462;-64
2021/04/07 09:46:00;;;;;;;3.47;2.77;;;5.80;99.90;;;;;;5000442;28;20460;-64
2021/04/07 09:48:57;;;;;;;3.13;2.87;;;6.40;99.90;;;;;;4998794;28;20438;-65
2021/04/07 09:51:30;;;;;;;6.20;3.10;;;6.50;99.90;;;;;;4937200;29;20472;-65
2021/04/07 09:54:18;;;;;;;3.10;2.40;;;6.60;99.90;;;;;;4985236;28;20957;-65
2021/04/07 09:56:58;;;;;;;5.53;2.70;;;6.60;99.90;;;;;;4996872;28;20438;-64
2021/04/07 09:59:39;;;;;;;3.63;2.70;;;6.50;99.90;;;;;;4997185;28;20438;-64
2021/04/07 10:02:08;;;;;;;3.30;3.00;;;6.40;99.90;;;;;;4996422;28;20485;-64
2021/04/07 10:04:35;;;;;;;8.00;2.83;;;6.70;99.90;;;;;;4997211;28;20513;-65
2021/04/07 10:07:15;;;;;;;5.53;2.83;;;6.80;99.90;;;;;;4996735;28;20457;-64
2021/04/07 10:09:42;;;;;;;5.97;2.70;;;7.00;99.90;;;;;;4996099;28;20449;-64
2021/04/07 10:12:10;;;;;;;3.80;2.80;;;6.90;99.90;;;;;;4996041;28;20814;-64
2021/04/07 10:14:37;;;;;;;2.83;2.40;;;6.60;99.90;;;;;;4996937;28;20462;-64
2021/04/07 10:17:13;;;;;;;2.93;2.67;;;6.50;99.90;;;;;;4997332;28;20516;-64
2021/04/07 10:19:39;;;;;;;2.90;2.60;;;6.30;99.90;;;;;;4996722;28;20500;-64
2021/04/07 10:22:07;;;;;;;2.83;2.63;;;6.10;99.90;;;;;;4996745;28;20564;-64
2021/04/07 10:24:37;;;;;;;2.73;2.33;;;5.70;99.90;;;;;;4997006;28;20552;-65
2021/04/07 10:27:04;;;;;;;4.23;2.53;;;5.50;99.90;;;;;;4997063;28;20528;-64
2021/04/07 10:29:30;;;;;;;4.40;2.67;;;5.30;99.90;;;;;;4996548;28;20929;-63
2021/04/07 10:31:58;;;;;;;4.20;2.63;;;5.30;99.90;;;;;;4996121;28;20485;-64
2021/04/07 10:34:29;;;;;;;3.67;2.57;;;5.10;99.90;;;;;;4996482;28;20841;-66
2021/04/07 10:36:56;;;;;;;4.73;2.73;;;5.20;99.90;;;;;;4995929;28;20968;-65
2021/04/07 10:39:22;;;;;;;6.87;2.73;;;5.30;99.90;;;;;;4996367;28;20464;-65
2021/04/07 10:41:50;;;;;;;4.13;2.87;;;5.30;99.90;;;;;;4996219;28;20478;-63
2021/04/07 10:44:23;;;;;;;4.47;2.20;;;5.50;99.90;;;;;;4996284;28;20554;-63
2021/04/07 10:46:50;;;;;;;4.07;2.10;;;5.60;99.90;;;;;;4996224;28;20461;-65
2021/04/07 10:49:17;;;;;;;2.50;2.30;;;5.80;99.90;;;;;;4996094;28;20461;-66
2021/04/07 10:51:43;;;;;;;4.63;2.60;;;6.00;99.90;;;;;;4996676;28;20481;-65
2021/04/07 10:54:10;;;;;;;3.50;2.53;;;6.10;99.90;;;;;;4996436;28;20454;-65
2021/04/07 10:56:37;;;;;;;2.10;2.00;;;6.20;99.90;;;;;;4996206;28;20541;-64
2021/04/07 10:59:06;;;;;;;2.27;2.07;;;6.10;99.90;;;;;;4995555;28;20462;-64
2021/04/07 11:01:33;;;;;;;3.10;2.20;;;6.40;99.90;;;;;;4995599;28;20489;-64
2021/04/07 11:04:10;;;;;;;2.23;2.03;;;6.50;99.90;;;;;;4995793;28;20493;-64
2021/04/07 11:06:36;;;;;;;4.77;1.87;;;6.60;99.90;;;;;;4995701;28;20441;-63
2021/04/07 11:09:03;;;;;;;3.70;2.20;;;6.70;99.90;;;;;;4995314;28;20450;-63
2021/04/07 11:11:29;;;;;;;2.00;1.90;;;7.40;99.90;;;;;;4995132;28;20998;-64
2021/04/07 11:13:56;;;;;;;2.40;2.20;;;8.20;99.60;;;;;;4995216;28;20952;-64
2021/04/07 11:16:31;;;;;;;3.73;2.70;;;8.70;97.90;;;;;;4996920;28;20458;-66
2021/04/07 11:18:58;;;;;;;2.83;2.23;;;8.70;94.00;;;;;;4996875;28;20441;-66
2021/04/07 11:21:24;;;;;;;2.30;1.97;;;8.80;94.40;;;;;;4997557;28;20485;-64
2021/04/07 11:23:50;;;;;;;2.60;1.80;;;9.00;95.50;;;;;;4996882;28;20484;-64
2021/04/07 11:26:16;;;;;;;2.77;2.07;;;9.40;93.80;;;;;;4997258;28;20462;-64
2021/04/07 11:28:43;;;;;;;2.20;2.00;;;8.90;91.90;;;;;;4995968;28;20462;-66
2021/04/07 11:31:11;;;;;;;6.57;2.70;;;8.80;94.10;;;;;;4995346;28;20515;-64
2021/04/07 11:33:43;;;;;;;2.20;2.03;;;9.40;96.50;;;;;;4995299;28;20485;-64
2021/04/07 11:36:19;;;;;;;2.40;2.20;;;9.70;93.60;;;;;;4995207;28;20438;-64
2021/04/07 11:38:50;;;;;;;4.77;2.77;;;9.70;92.50;;;;;;4995502;28;20909;-65
2021/04/07 11:46:46;;;;;;;4.53;1.80;;;9.50;88.40;;;;;;4995211;28;20429;-65
2021/04/07 11:49:13;;;;;;;2.83;1.80;;;9.40;85.90;;;;;;4995326;28;20458;-64
2021/04/07 11:51:41;;;;;;;1.77;1.60;;;8.60;84.50;;;;;;4994830;28;20481;-64
2021/04/07 11:54:10;;;;;;;2.20;1.80;;;8.30;84.70;;;;;;4994993;28;20457;-64
2021/04/07 11:56:37;;;;;;;2.30;1.77;;;7.50;84.10;;;;;;4995018;28;20524;-64
2021/04/07 11:59:05;;;;;;;2.27;1.70;;;7.00;87.60;;;;;;4995178;28;20786;-65
2021/04/07 12:01:31;;;;;;;5.30;2.00;;;6.60;90.50;;;;;;4994511;28;20489;-64
2021/04/07 12:03:58;;;;;;;5.10;2.20;;;6.60;92.30;;;;;;4994486;28;20477;-64
2021/04/07 12:06:25;;;;;;;3.80;2.13;;;6.40;93.30;;;;;;4994801;28;20465;-64
2021/04/07 12:08:51;;;;;;;3.30;1.97;;;6.30;94.40;;;;;;4994413;28;20953;-64
2021/04/07 12:11:17;;;;;;;2.50;1.70;;;6.10;94.90;;;;;;4995226;28;20547;-64
2021/04/07 12:13:44;;;;;;;3.57;2.20;;;6.10;95.30;;;;;;4996830;28;20454;-64
2021/04/07 12:16:10;;;;;;;7.13;2.47;;;5.80;96.30;;;;;;4997261;28;20577;-64
2021/04/07 12:18:36;;;;;;;7.00;2.30;;;5.80;98.50;;;;;;4999390;28;20458;-63
2021/04/07 12:21:02;;;;;;;3.90;1.90;;;5.90;98.70;;;;;;5001584;28;20480;-65
2021/04/07 12:23:29;;;;;;;5.97;2.27;;;6.10;99.20;;;;;;5000809;28;20987;-65
2021/04/07 12:25:56;;;;;;;3.53;2.10;;;6.00;99.80;;;;;;4995288;28;20458;-64
2021/04/07 12:28:23;;;;;;;12.57;2.63;;;5.90;99.90;;;;;;4994815;28;20453;-64
2021/04/07 12:30:50;;;;;;;2.40;2.20;;;5.90;99.90;;;;;;4994614;28;20473;-64
2021/04/07 12:33:17;;;;;;;4.47;2.30;;;6.10;99.90;;;;;;4993852;28;20457;-64
2021/04/07 12:35:44;;;;;;;6.43;2.60;;;6.00;99.90;;;;;;4994577;28;20512;-63
2021/04/07 12:38:10;;;;;;;6.40;1.93;;;6.10;99.90;;;;;;4994643;28;20458;-64
2021/04/07 12:40:38;;;;;;;4.13;2.13;;;6.10;99.90;;;;;;4994194;28;20473;-64
2021/04/07 12:43:04;;;;;;;3.93;1.83;;;6.40;99.90;;;;;;4994379;28;20516;-65
2021/04/07 12:45:31;;;;;;;5.20;2.07;;;6.90;99.90;;;;;;4994094;28;20831;-65
2021/04/07 12:47:57;;;;;;;2.00;1.90;;;7.30;99.90;;;;;;4994469;28;20458;-66
2021/04/07 12:50:23;;;;;;;6.20;2.30;;;7.50;99.90;;;;;;4995905;28;20454;-65
2021/04/07 12:52:49;;;;;;;2.87;2.37;;;7.30;99.60;;;;;;4995799;28;20450;-64
2021/04/07 12:55:16;;;;;;;5.87;2.40;;;7.40;99.90;;;;;;4994977;28;20454;-64
2021/04/07 12:57:43;;;;;;;4.03;2.30;;;7.30;99.90;;;;;;4994954;28;20949;-64
2021/04/07 13:00:10;;;;;;;6.23;2.47;;;7.10;99.90;;;;;;4995469;28;20457;-64
2021/04/07 13:02:36;;;;;;;5.17;2.30;;;6.60;99.90;;;;;;4996850;28;20465;-63
2021/04/07 13:05:02;;;;;;;2.37;2.17;;;6.40;99.90;;;;;;4994970;28;20450;-65
2021/04/07 13:07:29;;;;;;;4.73;2.23;;;6.20;99.90;;;;;;4994418;28;20464;-64
2021/04/07 13:09:56;;;;;;;2.80;2.17;;;6.10;99.90;;;;;;4994669;28;20454;-64
2021/04/07 13:12:22;;;;;;;4.73;2.43;;;5.90;99.90;;;;;;4994033;28;20474;-66
2021/04/07 13:14:49;;;;;;;7.90;2.60;;;5.80;99.90;;;;;;4994191;28;20457;-66
2021/04/07 13:17:16;;;;;;;5.93;2.73;;;5.80;99.90;;;;;;4994016;28;20454;-66
2021/04/07 13:19:46;;;;;;;2.90;2.70;;;5.60;99.90;;;;;;4994086;28;21006;-66
2021/04/07 13:22:12;;;;;;;4.70;2.37;;;5.50;99.90;;;;;;4994017;28;20606;-65
2021/04/07 13:24:38;;;;;;;4.17;2.40;;;5.60;99.90;;;;;;4993786;28;20478;-65
2021/04/07 13:27:05;;;;;;;5.73;2.60;;;5.50;99.90;;;;;;4994475;28;20457;-65
2021/04/07 13:29:32;;;;;;;9.33;3.23;;;5.50;99.90;;;;;;4995436;28;20453;-66
2021/04/07 13:31:59;;;;;;;2.83;2.37;;;5.60;99.90;;;;;;4997188;28;20615;-65
2021/04/07 13:34:30;;;;;;;5.23;2.37;;;5.60;99.90;;;;;;4996076;28;20464;-66
2021/04/07 13:37:03;;;;;;;5.20;2.57;;;5.60;99.90;;;;;;4994359;28;20901;-66
2021/04/07 13:39:39;;;;;;;6.30;2.47;;;5.70;99.90;;;;;;4994119;28;20544;-66
2021/04/07 13:44:50;;;;;;;9.93;2.83;;;5.60;99.90;;;;;;4995286;28;20472;-65
2021/04/07 13:47:22;;;;;;;5.03;2.40;;;5.30;99.90;;;;;;4997193;28;20449;-64
2021/04/07 13:49:48;;;;;;;5.50;2.50;;;5.10;99.90;;;;;;4997330;28;20438;-66
2021/04/07 13:52:15;;;;;;;6.37;2.63;;;4.80;99.90;;;;;;4997543;28;20496;-64
2021/04/07 13:54:43;;;;;;;2.73;2.37;;;4.80;99.90;;;;;;4997282;28;20454;-64
2021/04/07 13:57:19;;;;;;;6.23;2.17;;;4.80;99.90;;;;;;4997202;28;20454;-64
2021/04/07 13:59:45;;;;;;;2.80;2.40;;;4.80;99.90;;;;;;4997112;28;20442;-63
2021/04/07 14:02:12;;;;;;;3.67;1.93;;;4.70;99.90;;;;;;4996487;28;21019;-63
2021/04/07 14:04:39;;;;;;;4.60;2.50;;;4.70;99.90;;;;;;4996702;28;20486;-64
2021/04/07 14:07:09;;;;;;;3.20;2.33;;;4.90;99.90;;;;;;4996808;28;20453;-63
2021/04/07 14:09:35;;;;;;;4.57;1.97;;;5.00;99.90;;;;;;4996421;28;21039;-64
2021/04/07 14:12:01;;;;;;;4.30;2.07;;;5.10;99.90;;;;;;4996706;28;20481;-64
2021/04/07 14:14:28;;;;;;;6.07;2.07;;;5.10;99.90;;;;;;4998227;28;21012;-63
2021/04/07 14:16:54;;;;;;;3.07;2.00;;;5.20;99.90;;;;;;5004482;28;20457;-64
2021/04/07 14:19:20;;;;;;;2.27;1.60;;;5.20;99.90;;;;;;4996559;28;20524;-64
2021/04/07 14:21:47;;;;;;;2.17;1.97;;;5.10;99.90;;;;;;4996278;28;20478;-64
2021/04/07 14:24:13;;;;;;;2.53;1.87;;;5.00;99.90;;;;;;4996626;28;20481;-64
2021/04/07 14:26:40;;;;;;;5.70;2.00;;;5.00;99.90;;;;;;4996124;28;20463;-63
2021/04/07 14:29:06;;;;;;;2.07;1.97;;;4.90;99.90;;;;;;4996168;28;20480;-64
2021/04/07 14:31:32;;;;;;;5.00;2.07;;;4.60;99.90;;;;;;4995871;28;20485;-64
2021/04/07 14:33:59;;;;;;;3.30;2.20;;;4.50;99.90;;;;;;4996031;28;20508;-64
2021/04/07 14:36:25;;;;;;;5.70;2.20;;;4.40;99.90;;;;;;4995660;28;20453;-64
2021/04/07 14:38:52;;;;;;;2.50;1.77;;;4.50;99.90;;;;;;4996181;28;20462;-66
2021/04/07 14:41:18;;;;;;;2.47;2.13;;;4.30;99.90;;;;;;4996071;28;20482;-64
2021/04/07 14:43:45;;;;;;;4.87;2.30;;;4.30;99.90;;;;;;4995415;28;20956;-64
2021/04/07 14:46:12;;;;;;;3.20;2.40;;;4.30;99.90;;;;;;4996137;28;20457;-65
2021/04/07 14:48:38;;;;;;;3.17;2.50;;;4.40;99.90;;;;;;4995551;28;20960;-64
2021/04/07 14:51:15;;;;;;;3.17;2.30;;;4.40;99.90;;;;;;4996506;28;20473;-64
2021/04/07 14:53:42;;;;;;;3.60;2.30;;;4.60;99.90;;;;;;4995848;28;20438;-64
2021/04/07 14:56:09;;;;;;;2.50;2.30;;;4.40;99.90;;;;;;4994945;28;20458;-65
2021/04/07 14:58:36;;;;;;;5.17;2.63;;;4.40;99.90;;;;;;4995396;28;20952;-64
2021/04/07 15:01:03;;;;;;;3.30;2.77;;;4.30;99.90;;;;;;4995407;28;20481;-64
2021/04/07 15:03:29;;;;;;;3.63;2.50;;;4.20;99.90;;;;;;4995545;28;20481;-63
2021/04/07 15:05:56;;;;;;;3.07;2.17;;;3.80;99.90;;;;;;4995489;28;20457;-64
2021/04/07 15:08:22;;;;;;;3.50;2.20;;;3.60;99.90;;;;;;4995465;28;20453;-63
2021/04/07 15:10:48;;;;;;;5.30;2.30;;;3.50;99.90;;;;;;4995477;28;20491;-64
2021/04/07 15:13:15;;;;;;;5.37;3.20;;;3.40;99.90;;;;;;4995335;28;20454;-63
2021/04/07 15:15:41;;;;;;;2.90;2.37;;;3.40;99.90;;;;;;4996212;28;20457;-64
2021/04/07 15:18:08;;;;;;;3.43;2.80;;;3.30;99.90;;;;;;4995316;28;20454;-64
2021/04/07 15:20:34;;;;;;;2.80;2.53;;;3.10;99.90;;;;;;4995214;28;20460;-63
2021/04/07 15:23:00;;;;;;;5.20;3.03;;;3.10;99.90;;;;;;4995597;28;20474;-63
2021/04/07 15:25:30;;;;;;;3.70;3.33;;;3.00;99.90;;;;;;4998299;28;20454;-63
2021/04/07 15:30:47;;;;;;;4.47;4.13;;;3.00;99.90;;;;;;4998133;28;20461;-63
2021/04/07 15:33:14;;;;;;;8.60;3.40;;;2.90;99.90;;;;;;4997069;28;20426;-63
2021/04/07 15:35:40;;;;;;;8.70;3.27;;;2.90;99.90;;;;;;4995903;28;20449;-64
2021/04/07 15:38:06;;;;;;;5.90;3.73;;;2.80;99.90;;;;;;4994427;28;20804;-64
2021/04/07 15:40:33;;;;;;;2.87;2.67;;;2.80;99.90;;;;;;4994902;28;20457;-63
2021/04/07 15:42:59;;;;;;;3.90;3.23;;;2.60;99.90;;;;;;4994812;28;20500;-63
2021/04/07 15:45:26;;;;;;;3.30;3.00;;;2.50;99.90;;;;;;4994765;28;20465;-63
2021/04/07 15:47:53;;;;;;;7.30;3.60;;;2.40;99.90;;;;;;4994612;28;20453;-64
2021/04/07 15:50:19;;;;;;;4.03;3.20;;;2.40;99.90;;;;;;4994195;28;20794;-63
2021/04/07 15:52:46;;;;;;;3.53;3.20;;;2.30;99.90;;;;;;4994696;28;20453;-64
2021/04/07 15:55:13;;;;;;;3.20;2.90;;;2.30;99.90;;;;;;4994423;28;20457;-63
2021/04/07 15:57:39;;;;;;;4.40;3.63;;;2.40;99.90;;;;;;4994062;28;20464;-64
2021/04/07 16:00:07;;;;;;;4.07;3.50;;;2.40;99.90;;;;;;4993943;28;20963;-64
2021/04/07 16:02:33;;;;;;;3.40;2.70;;;2.30;99.90;;;;;;4993774;28;20540;-63
2021/04/07 16:05:00;;;;;;;3.60;3.33;;;2.30;99.90;;;;;;4994155;28;20900;-64
2021/04/07 16:07:26;;;;;;;5.10;3.70;;;2.40;99.90;;;;;;4994165;28;20465;-63
2021/04/07 16:09:54;;;;;;;3.90;3.60;;;2.40;99.90;;;;;;4996904;28;20454;-63
2021/04/07 16:12:20;;;;;;;7.27;3.40;;;2.50;99.90;;;;;;4997897;28;20509;-64
2021/04/07 16:14:46;;;;;;;4.33;3.80;;;2.40;99.90;;;;;;4994184;28;20473;-64
2021/04/07 16:17:12;;;;;;;4.03;3.67;;;2.40;99.90;;;;;;4993952;28;20480;-64
2021/04/07 16:19:40;;;;;;;3.87;3.57;;;2.40;99.90;;;;;;4993904;28;20453;-64
2021/04/07 16:22:07;;;;;;;2.93;2.73;;;2.30;99.90;;;;;;4993963;28;20473;-64
2021/04/07 16:24:34;;;;;;;4.13;3.80;;;2.30;99.90;;;;;;4993947;28;20477;-63
2021/04/07 16:27:01;;;;;;;4.00;3.30;;;2.20;99.90;;;;;;4994680;28;20801;-63
2021/04/07 16:29:29;;;;;;;8.57;3.50;;;2.30;99.90;;;;;;4994183;28;20453;-63
2021/04/07 16:31:55;;;;;;;4.30;3.90;;;2.30;99.90;;;;;;4995053;28;21002;-63
2021/04/07 16:34:21;;;;;;;5.33;3.57;;;2.50;99.90;;;;;;4995792;28;20530;-63
2021/04/07 16:36:48;;;;;;;3.53;3.10;;;2.50;99.90;;;;;;4995007;28;20458;-63
2021/04/07 16:39:15;;;;;;;4.70;3.27;;;2.60;99.90;;;;;;4996574;28;20813;-63
2021/04/07 16:41:41;;;;;;;5.70;4.07;;;2.70;99.90;;;;;;4995802;28;20557;-63
2021/04/07 16:44:08;;;;;;;7.70;4.57;;;2.70;99.90;;;;;;4994938;28;21058;-63
2021/04/07 16:46:35;;;;;;;7.60;3.93;;;2.80;99.90;;;;;;4995214;28;20458;-63
2021/04/07 16:49:02;;;;;;;6.67;3.67;;;2.80;99.90;;;;;;4993887;28;20961;-64
2021/04/07 16:51:28;;;;;;;8.13;4.00;;;2.90;99.90;;;;;;4994013;28;20532;-63
2021/04/07 16:53:54;;;;;;;4.83;3.70;;;2.90;99.90;;;;;;4998607;28;20445;-64
2021/04/07 16:56:21;;;;;;;7.10;3.60;;;2.80;99.90;;;;;;4999227;28;20465;-65
2021/04/07 16:58:47;;;;;;;8.67;3.60;;;2.80;99.90;;;;;;4997940;28;20964;-65
2021/04/07 17:01:13;;;;;;;7.20;3.30;;;2.80;99.90;;;;;;4998291;28;20485;-65
2021/04/07 17:03:40;;;;;;;5.30;3.90;;;2.90;99.90;;;;;;4995856;28;20481;-65
2021/04/07 17:06:06;;;;;;;8.23;4.03;;;2.90;99.90;;;;;;4994145;28;20485;-65
2021/04/07 17:08:32;;;;;;;3.40;3.10;;;2.80;99.90;;;;;;4994415;28;20453;-64
2021/04/07 17:10:59;;;;;;;4.50;3.70;;;2.80;99.90;;;;;;4994127;28;20485;-64